»·PEaware :: N66083 KSMF-KSMF

N66083 :: KSMF-KSMF

FLIGHT INFORMATION

Flight Status: Arrived
Operator: Privately registered:
United States
More flights under this callsign
Pilot: Jack W. (33220)
Aircraft: CESSNA 172 SKYHAWK
(C172)
More flights by this aircraft type
Origin: KSMF Sacramento Intl
United States
Destination: KSMF Sacramento Intl
United States
More flights between these airports :: More routes between these airports
Route: SAC
File this flight plan on PilotEdge
Remarks: Practice appr RNAV Y 35R
Altitude:
(Current/Filed)
5,000ft
Speed:
(Current/Filed)
109kts
Departed: 12-Jan-21 09:12 PM
Arrived: 12-Jan-21 09:36 PM
Distance/Time
Traveled:
1nm/0:24
Distance/Time
To Go:
Arrived

Flight Plot

Page will automatically refresh every two minutes.


Map Options




Map Legend


Flown Route
Filed Route
Departure Airport
Arrival Airport
Navaid (VOR, NDB)
Fix

Horizontal Profiles

Position Reports

Time Latitude Longitude Heading Altitude Ground
Speed
12-Jan-21 20:42 38.681424 -121.597975 1 24ft 0kts
12-Jan-21 20:43 38.681424 -121.597975 1 24ft 0kts
12-Jan-21 20:44 38.681424 -121.597975 1 24ft 0kts
12-Jan-21 20:45 38.681424 -121.597975 1 24ft 0kts
12-Jan-21 20:47 38.681424 -121.597975 1 24ft 0kts
12-Jan-21 20:48 38.681424 -121.597975 1 24ft 0kts
12-Jan-21 20:49 38.681424 -121.597975 1 24ft 0kts
12-Jan-21 20:50 38.681424 -121.597975 1 24ft 0kts
12-Jan-21 20:51 38.681424 -121.597975 1 24ft 0kts
12-Jan-21 20:52 38.681424 -121.597975 1 24ft 0kts
12-Jan-21 20:53 38.681424 -121.597975 1 24ft 0kts
12-Jan-21 20:54 38.681424 -121.597975 1 24ft 0kts
12-Jan-21 20:55 38.681424 -121.597975 1 24ft 0kts
12-Jan-21 20:56 38.681424 -121.597975 1 24ft 0kts
12-Jan-21 20:57 38.681424 -121.597975 1 24ft 0kts
12-Jan-21 20:58 38.681424 -121.597975 1 24ft 0kts
12-Jan-21 20:59 38.681424 -121.597975 1 24ft 0kts
12-Jan-21 21:00 38.681424 -121.597975 1 24ft 0kts
12-Jan-21 21:01 38.681424 -121.597975 1 24ft 0kts
12-Jan-21 21:02 38.681424 -121.597975 1 24ft 0kts
12-Jan-21 21:03 38.681424 -121.597975 1 24ft 0kts
12-Jan-21 21:03 38.683779 -121.598445 267 26ft 0kts
12-Jan-21 21:05 38.689811 -121.598757 2 27ft 29kts
12-Jan-21 21:06 38.697411 -121.598631 0 27ft 26kts
12-Jan-21 21:07 38.705184 -121.598506 1 28ft 28kts
12-Jan-21 21:07 38.707200 -121.599742 270 28ft 9kts
12-Jan-21 21:08 38.707201 -121.599796 274 27ft 0kts
12-Jan-21 21:10 38.707201 -121.599796 274 27ft 0kts
12-Jan-21 21:10 38.707201 -121.599796 274 27ft 0kts
12-Jan-21 21:11 38.705361 -121.601127 182 30ft 47kts
12-Jan-21 21:12 38.684540 -121.601526 183 757ft 77kts
12-Jan-21 21:13 38.662375 -121.604131 184 1583ft 80kts
12-Jan-21 21:14 38.640369 -121.607721 183 2427ft 76kts
12-Jan-21 21:15 38.619671 -121.610942 183 3213ft 73kts
12-Jan-21 21:16 38.607559 -121.624886 297 3917ft 88kts
12-Jan-21 21:17 38.630919 -121.635733 342 4593ft 91kts
12-Jan-21 21:18 38.657035 -121.643845 346 4999ft 114kts
12-Jan-21 21:19 38.689813 -121.653438 346 5021ft 121kts
12-Jan-21 21:20 38.723400 -121.663950 344 4455ft 123kts
12-Jan-21 21:21 38.756882 -121.673848 346 3947ft 124kts
12-Jan-21 21:22 38.790036 -121.685670 344 3494ft 122kts
12-Jan-21 21:23 38.822755 -121.697804 343 2950ft 118kts
12-Jan-21 21:24 38.855013 -121.709539 350 2988ft 125kts
12-Jan-21 21:25 38.876240 -121.687575 85 2689ft 101kts
12-Jan-21 21:26 38.880561 -121.652375 85 2150ft 98kts
12-Jan-21 21:27 38.877540 -121.620686 135 1913ft 85kts
12-Jan-21 21:28 38.855139 -121.606438 155 1943ft 92kts
12-Jan-21 21:29 38.830070 -121.600722 172 1916ft 91kts
12-Jan-21 21:30 38.805063 -121.599526 180 1936ft 90kts
12-Jan-21 21:31 38.779342 -121.600286 178 1518ft 93kts
12-Jan-21 21:32 38.752963 -121.600289 180 949ft 94kts
12-Jan-21 21:33 38.727104 -121.600565 180 499ft 87kts
12-Jan-21 21:34 38.707611 -121.601069 183 68ft 69kts
12-Jan-21 21:35 38.701294 -121.599654 93 30ft 0kts
12-Jan-21 21:36 38.701041 -121.598640 157 28ft 12kts
12-Jan-21 21:37 38.696032 -121.598652 180 28ft 19kts
12-Jan-21 21:38 38.690047 -121.598761 180 27ft 19kts
12-Jan-21 21:39 38.683832 -121.598857 181 26ft 19kts
12-Jan-21 21:40 38.681209 -121.598077 86 24ft 6kts
12-Jan-21 21:41 38.681410 -121.597812 355 24ft 0kts

Navigation Log

Ident Type
Flight plan parsing failed, navigation log unavailable